Silvio Pettirossi International Airport
SGAS : rendu visible

Aérodrome :











RETROUVEZ-NOUS SUR...

 
LOGIN :

S'inscrire | Disclaimer

   EN    FR    IT 

 









Légende :    VFR   VFR Marginal   IFR   IFR Intensif   IFR Très Intensif
Visi : 
Plafond : 
>= 8 km
>= 3000ft
5 à 8 km
1000 à 3000 ft
1500m à 5 km
500 à 1000 ft
800 à 1500m
200 à 500 ft
< 800m
< 200 ft
Symboles :   Orages  Brouillard  Fortes neiges  Fortes précipitations  Vent > 20 kt






- Altitude de l'aérodrome : 292 ft
- Code IATA : ASU


SGAS - Silvio Pettirossi International

DERNIER METAR :
  • 251230Z 01005KT 9999 SCT027 BKN070 29/23 Q1010

METARs EXPIRÉS :
  • 251200Z 01004KT 9999 SCT027 BKN070 28/23 Q1010
  • 251130Z VRB03KT 9999 BKN027 BKN070 28/23 Q1010 REVCTSSHRA
  • 251100Z 00000KT 9999 VCTSSHRA BKN027 FEW040CB BKN070 27/23 Q1010
  • 251000Z 01003KT 9999 VCSHRA SCT027 BKN070 27/23 Q1009

TAF TAF SGAS
Valide du 25 à 12h jusqu'au 26 à 12h UTC


250954Z 2512/2612 03005KT 9999 VCTS BKN027 FEW040CB TX32/2518Z TN221/2609Z
PROB30
TEMPO 2512/2514 15007KT 9000 -TSRA BKN027
BECMG 2515/2518 05007KT 9999 SCT027
PROB30
TEMPO 2518/2520 VRB03KT 9000 -TSRA BKN027 FEW040CB
BECMG 2522/2601 18010KT 9999 BKN027



MET'MAP, la Météo Aéronautique d'un coup d'oeil ! - Copyright ORBIFLY Décembre 2007 - Disclaimer

ORBIFLY MET'MAP TEAM :

Programmation & Développement : Alexandra Zaïnal
Sur une idée originale de : Baudouin d'Aumeries
Assistance à la programmation : Marc-Olivier Méhu
Soutien technique & logistique : Manuel Goepfert

Contact : metmap@orbifly.com




SOURCES & CREDITS :

   NOAA       Earth
Advisory